createdAt,value
2018-02-07T00:03:22.075Z,100872.34
2018-02-07T00:08:16.400Z,100873.14
2018-02-07T00:13:10.688Z,100876.56
2018-02-07T00:18:05.535Z,100876.09
2018-02-07T00:23:00.589Z,100873.05
2018-02-07T00:27:54.859Z,100867.80
2018-02-07T00:32:49.880Z,100861.70
2018-02-07T00:37:44.916Z,100860.53
2018-02-07T00:42:39.236Z,100867.02
2018-02-07T00:47:33.522Z,100869.97
2018-02-07T00:52:27.854Z,100864.69
2018-02-07T00:57:22.150Z,100867.27
2018-02-07T01:02:16.450Z,100873.76
2018-02-07T01:07:10.721Z,100871.64
2018-02-07T01:12:04.996Z,100879.05
2018-02-07T01:17:00.394Z,100884.23
2018-02-07T01:21:54.676Z,100888.58
2018-02-07T01:26:48.948Z,100885.47
2018-02-07T01:31:43.239Z,100883.70
2018-02-07T01:36:38.296Z,100884.97
2018-02-07T01:41:32.568Z,100888.45
2018-02-07T01:46:26.990Z,100886.44
2018-02-07T01:51:21.039Z,100884.80
2018-02-07T01:56:16.084Z,100888.34
2018-02-07T02:01:10.370Z,100883.99
2018-02-07T02:06:05.409Z,100893.12
2018-02-07T02:10:59.889Z,100880.55
2018-02-07T02:15:54.464Z,100882.28
2018-02-07T02:20:49.088Z,100877.16
2018-02-07T02:25:44.863Z,100882.06
2018-02-07T02:30:39.337Z,100866.97
2018-02-07T02:35:34.381Z,100875.36
2018-02-07T02:40:29.123Z,100868.52
2018-02-07T02:45:23.407Z,100869.95
2018-02-07T02:50:17.940Z,100873.08
2018-02-07T02:55:12.220Z,100869.22
2018-02-07T03:00:06.265Z,100880.95
2018-02-07T03:05:01.513Z,100866.67
2018-02-07T03:09:55.780Z,100871.05
2018-02-07T03:14:50.066Z,100873.77
2018-02-07T03:19:44.411Z,100872.06
2018-02-07T03:24:38.672Z,100873.36
2018-02-07T03:29:33.216Z,100873.31
2018-02-07T03:34:28.803Z,100874.59
2018-02-07T03:39:23.069Z,100868.47
2018-02-07T03:44:18.104Z,100867.14
2018-02-07T03:49:12.387Z,100876.23
2018-02-07T03:54:06.666Z,100878.38
2018-02-07T03:59:00.928Z,100879.72
2018-02-07T04:03:56.720Z,100884.46
2018-02-07T04:08:50.987Z,100884.84
2018-02-07T04:13:46.045Z,100887.39
2018-02-07T04:18:40.323Z,100888.23
2018-02-07T04:23:34.606Z,100892.09
2018-02-07T04:28:29.766Z,100895.16
2018-02-07T04:33:24.807Z,100898.29
2018-02-07T04:38:19.284Z,100893.63
2018-02-07T04:43:15.288Z,100896.05
2018-02-07T04:48:10.328Z,100888.91
2018-02-07T04:53:04.606Z,100898.75
2018-02-07T04:57:59.848Z,100900.77
2018-02-07T05:02:54.265Z,100901.84
2018-02-07T05:07:48.590Z,100912.08
2018-02-07T05:12:42.903Z,100913.98
2018-02-07T05:17:37.198Z,100917.61
2018-02-07T05:22:31.482Z,100918.98
2018-02-07T05:27:25.773Z,100920.34
2018-02-07T05:32:20.081Z,100926.42
2018-02-07T05:37:14.375Z,100922.62
2018-02-07T05:42:08.718Z,100920.13
2018-02-07T05:47:03.832Z,100925.84
2018-02-07T05:51:58.216Z,100936.36
2018-02-07T05:56:52.532Z,100933.81
2018-02-07T06:01:46.891Z,100927.38
2018-02-07T06:06:41.204Z,100938.64
2018-02-07T06:11:35.822Z,100946.88
2018-02-07T06:16:30.149Z,100945.20
2018-02-07T06:21:24.434Z,100948.20
2018-02-07T06:26:18.719Z,100944.29
2018-02-07T06:31:12.992Z,100943.89
2018-02-07T06:36:07.105Z,100946.08
2018-02-07T06:41:01.418Z,100954.75
2018-02-07T06:45:55.705Z,100963.44
2018-02-07T06:50:49.797Z,100968.63
2018-02-07T06:55:44.632Z,100969.03
2018-02-07T07:00:39.059Z,100966.75
2018-02-07T07:05:33.373Z,100967.05
2018-02-07T07:10:28.446Z,100977.73
2018-02-07T07:15:22.724Z,100979.33
2018-02-07T07:20:17.039Z,100993.92
2018-02-07T07:25:11.323Z,100992.45
2018-02-07T07:30:07.612Z,100994.05
2018-02-07T07:35:01.944Z,100999.55
2018-02-07T07:39:57.387Z,101010.27
2018-02-07T07:44:51.684Z,101011.48
2018-02-07T07:49:47.042Z,101014.39
2018-02-07T07:54:41.340Z,101016.89
2018-02-07T07:59:35.622Z,101016.78
2018-02-07T08:04:30.049Z,101026.22
2018-02-07T08:09:24.479Z,101029.13
2018-02-07T08:14:18.810Z,101026.30
2018-02-07T08:19:13.883Z,101030.80
2018-02-07T08:24:08.249Z,101037.88
2018-02-07T08:29:02.668Z,101047.58
2018-02-07T08:33:56.953Z,101045.97
2018-02-07T08:38:52.215Z,101056.55
2018-02-07T08:43:46.518Z,101054.05
2018-02-07T08:48:40.800Z,101051.77
2018-02-07T08:53:35.370Z,101050.86
2018-02-07T08:58:30.511Z,101056.08
2018-02-07T09:03:24.942Z,101057.90
2018-02-07T09:08:19.368Z,101063.64
2018-02-07T09:13:14.117Z,101060.28
2018-02-07T09:18:09.352Z,101073.08
2018-02-07T09:23:03.408Z,101077.31
2018-02-07T09:27:57.705Z,101087.38
2018-02-07T09:32:52.110Z,101089.05
2018-02-07T09:37:46.554Z,101094.73
2018-02-07T09:42:40.968Z,101100.09
2018-02-07T09:47:35.244Z,101093.63
2018-02-07T09:52:30.311Z,101103.82
2018-02-07T09:57:24.610Z,101113.10
2018-02-07T10:02:18.937Z,101120.41
2018-02-07T10:07:13.730Z,101119.62
2018-02-07T10:12:08.032Z,101117.33
2018-02-07T10:17:02.546Z,101114.87
2018-02-07T10:21:56.862Z,101118.35
2018-02-07T10:26:51.162Z,101121.86
2018-02-07T10:31:45.550Z,101125.19
2018-02-07T10:36:39.854Z,101118.58
2018-02-07T10:41:34.144Z,101121.44
2018-02-07T10:46:28.445Z,101131.13
2018-02-07T10:51:22.758Z,101136.18
2018-02-07T10:56:16.804Z,101138.41
2018-02-07T11:01:11.117Z,101141.39
2018-02-07T11:06:05.419Z,101138.87
2018-02-07T11:10:59.698Z,101136.95
2018-02-07T11:15:54.977Z,101146.17
2018-02-07T11:20:49.282Z,101148.84
2018-02-07T11:25:43.570Z,101145.22
2018-02-07T11:30:37.887Z,101146.95
2018-02-07T11:35:32.153Z,101152.96
2018-02-07T11:40:26.594Z,101149.91
2018-02-07T11:45:20.880Z,101162.09
2018-02-07T11:50:15.168Z,101153.62
2018-02-07T11:55:09.635Z,101162.97
2018-02-07T12:00:04.877Z,101160.58
2018-02-07T12:04:59.247Z,101168.87
2018-02-07T12:09:54.370Z,101167.91
2018-02-07T12:14:49.910Z,101161.25
2018-02-07T12:19:44.446Z,101168.15
2018-02-07T12:24:38.818Z,101163.91
2018-02-07T12:29:33.110Z,101165.42
2018-02-07T12:34:28.175Z,101163.38
2018-02-07T12:39:22.461Z,101157.55
2018-02-07T12:44:16.763Z,101163.88
2018-02-07T12:49:11.041Z,101164.17
2018-02-07T12:54:05.338Z,101159.06
2018-02-07T12:58:59.725Z,101158.48
2018-02-07T13:03:54.959Z,101151.23
2018-02-07T13:08:49.985Z,101146.59
2018-02-07T13:13:44.358Z,101145.78
2018-02-07T13:18:38.672Z,101146.50
2018-02-07T13:23:33.824Z,101149.36
2018-02-07T13:28:28.159Z,101142.48
2018-02-07T13:33:22.465Z,101150.14
2018-02-07T13:38:17.525Z,101154.77
2018-02-07T13:43:12.085Z,101153.33
2018-02-07T13:48:06.557Z,101150.00
2018-02-07T13:53:00.953Z,101156.50
2018-02-07T13:57:55.321Z,101163.68
2018-02-07T14:02:50.460Z,101166.00
2018-02-07T14:07:44.799Z,101165.70
2018-02-07T14:12:39.080Z,101169.25
2018-02-07T14:17:33.429Z,101166.55
2018-02-07T14:22:27.736Z,101160.30
2018-02-07T14:27:22.024Z,101163.09
2018-02-07T14:32:16.318Z,101172.44
2018-02-07T14:37:10.740Z,101167.53
2018-02-07T14:42:05.112Z,101173.16
2018-02-07T14:46:59.392Z,101177.97
2018-02-07T14:51:53.768Z,101174.58
2018-02-07T14:56:48.848Z,101174.95
2018-02-07T15:01:43.136Z,101170.92
2018-02-07T15:06:37.430Z,101179.87
2018-02-07T15:11:31.788Z,101176.19
2018-02-07T15:16:26.855Z,101177.74
2018-02-07T15:21:21.156Z,101176.67
2018-02-07T15:26:15.470Z,101181.23
2018-02-07T15:31:09.845Z,101191.92
2018-02-07T15:36:04.148Z,101191.67
2018-02-07T15:40:58.547Z,101198.43
2018-02-07T15:45:52.843Z,101202.09
2018-02-07T15:50:47.138Z,101201.40
2018-02-07T15:55:41.533Z,101210.75
2018-02-07T16:00:36.054Z,101212.22
2018-02-07T16:05:30.375Z,101207.63
2018-02-07T16:10:24.758Z,101217.83
2018-02-07T16:15:19.044Z,101219.72
2018-02-07T16:20:13.590Z,101221.13
2018-02-07T16:25:07.989Z,101222.17
2018-02-07T16:30:03.164Z,101215.40
2018-02-07T16:34:58.207Z,101213.34
2018-02-07T16:39:52.499Z,101214.34
2018-02-07T16:44:46.793Z,101217.96
2018-02-07T16:49:41.075Z,101226.81
2018-02-07T16:54:36.307Z,101229.16
2018-02-07T16:59:30.328Z,101238.40
2018-02-07T17:04:24.640Z,101245.91
2018-02-07T17:09:19.270Z,101239.44
2018-02-07T17:14:13.574Z,101246.84
2018-02-07T17:19:09.146Z,101247.80
2018-02-07T17:24:03.446Z,101263.95
2018-02-07T17:28:58.098Z,101258.39
2018-02-07T17:33:52.401Z,101265.41
2018-02-07T17:38:46.776Z,101271.58
2018-02-07T17:43:41.075Z,101277.28
2018-02-07T17:48:35.614Z,101286.52
2018-02-07T17:53:29.966Z,101287.46
2018-02-07T17:58:24.250Z,101300.12
2018-02-07T18:03:19.562Z,101300.63
2018-02-07T18:08:13.883Z,101307.22
2018-02-07T18:13:09.037Z,101306.41
2018-02-07T18:18:03.894Z,101318.60
2018-02-07T18:22:58.366Z,101326.02
2018-02-07T18:27:53.790Z,101325.59
2018-02-07T18:32:48.274Z,101326.92
2018-02-07T18:37:42.777Z,101341.27
2018-02-07T18:42:37.906Z,101347.35
2018-02-07T18:47:32.332Z,101352.15
2018-02-07T18:52:27.254Z,101353.91
2018-02-07T18:57:21.814Z,101355.20
2018-02-07T19:02:18.767Z,101357.36
2018-02-07T19:07:13.279Z,101366.92
2018-02-07T19:12:08.440Z,101371.25
2018-02-07T19:17:02.765Z,101376.48
2018-02-07T19:21:57.079Z,101388.63
2018-02-07T19:26:51.395Z,101391.24
2018-02-07T19:31:46.768Z,101386.92
2018-02-07T19:36:41.339Z,101386.49
2018-02-07T19:41:36.882Z,101393.44
2018-02-07T19:46:31.286Z,101394.75
2018-02-07T19:51:25.785Z,101395.61
2018-02-07T19:56:20.176Z,101401.25
2018-02-07T20:01:16.377Z,101405.14
2018-02-07T20:06:11.944Z,101404.30
2018-02-07T20:11:07.145Z,101417.30
2018-02-07T20:16:01.884Z,101417.71
2018-02-07T20:20:57.010Z,101418.17
2018-02-07T20:25:52.458Z,101422.06
2018-02-07T20:30:46.869Z,101422.50
2018-02-07T20:35:41.478Z,101433.73
2018-02-07T20:40:36.047Z,101434.18
2018-02-07T20:45:31.430Z,101445.45
2018-02-07T20:50:25.831Z,101432.87
2018-02-07T20:55:23.386Z,101441.54
2018-02-07T21:00:17.700Z,101448.89
2018-02-07T21:05:13.751Z,101444.57
2018-02-07T21:10:10.242Z,101441.52
2018-02-07T21:15:04.786Z,101448.00
2018-02-07T21:19:59.580Z,101446.70
2018-02-07T21:24:54.102Z,101450.16
2018-02-07T21:29:49.789Z,101457.06
2018-02-07T21:34:45.056Z,101455.31
2018-02-07T21:39:39.623Z,101455.33
2018-02-07T21:44:35.006Z,101458.34
2018-02-07T21:49:29.334Z,101461.34
2018-02-07T21:54:24.119Z,101468.28
2018-02-07T21:59:18.593Z,101463.48
2018-02-07T22:04:13.869Z,101459.19
2018-02-07T22:09:08.912Z,101447.47
2018-02-07T22:14:04.382Z,101450.93
2018-02-07T22:18:58.682Z,101464.77
2018-02-07T22:23:53.036Z,101465.61
2018-02-07T22:28:47.503Z,101464.31
2018-02-07T22:33:41.977Z,101475.12
2018-02-07T22:38:37.357Z,101472.95
2018-02-07T22:43:31.878Z,101475.94
2018-02-07T22:48:26.777Z,101476.37
2018-02-07T22:53:21.066Z,101480.64
2018-02-07T22:58:15.705Z,101481.05
2018-02-07T23:03:10.898Z,101478.02
2018-02-07T23:08:05.254Z,101485.77
2018-02-07T23:13:00.590Z,101480.55
2018-02-07T23:17:55.644Z,101495.66
2018-02-07T23:22:53.298Z,101493.05
2018-02-07T23:27:47.829Z,101504.65
2018-02-07T23:32:42.333Z,101498.60
2018-02-07T23:37:37.488Z,101505.46
2018-02-07T23:42:32.165Z,101508.02
2018-02-07T23:47:27.311Z,101521.00
2018-02-07T23:52:21.915Z,101514.53
2018-02-07T23:57:16.321Z,101516.23
